ADDS METAR Data INFO
IDs: Format: Raw Decoded Include TAF

Data at: 0259 UTC 21 Oct 2017

KCAK 210251Z 17006KT 10SM CLR 12/06 A3023 RMK AO2 SLP237 T01220056 53001
KCAK 210151Z 19004KT 10SM CLR 14/04 A3023 RMK AO2 SLP237 T01440044
KCAK 210051Z 17004KT 10SM CLR 16/04 A3022 RMK AO2 SLP235 T01560044
KCAK 202351Z 20004KT 10SM CLR 17/04 A3023 RMK AO2 SLP237 T01720039 10233 20161 55002
KCAK 202251Z 20005KT 10SM FEW250 18/05 A3022 RMK AO2 SLP233 T01780050
KCAK 202151Z 20004KT 10SM FEW250 20/07 A3022 RMK AO2 SLP232 T02000067
KCAK 202051Z 22004KT 10SM FEW250 22/05 A3023 RMK AO2 SLP236 T02220050 58012
KCAK 201951Z VRB04KT 10SM FEW250 23/03 A3025 RMK AO2 SLP240 T02280033
KCAK 201851Z 00000KT 10SM FEW250 22/02 A3026 RMK AO2 SLP245 T02170017
KCAK 201751Z VRB03KT 10SM FEW250 21/03 A3027 RMK AO2 SLP248 T02110028 10211 20089 58019
KCAK 201651Z 18004KT 10SM FEW250 19/04 A3029 RMK AO2 SLP257 T01940039
KCAK 201551Z 15006KT 10SM FEW250 18/06 A3031 RMK AO2 SLP264 T01830056
KCAK 201451Z 09005KT 10SM FEW250 17/07 A3033 RMK AO2 SLP269 T01720067 51016
KCAK 201351Z 00000KT 10SM FEW250 14/09 A3032 RMK AO2 SLP267 T01440094
KCAK 201251Z 00000KT 8SM MIFG FEW250 09/07 A3031 RMK AO2 SLP264 T00940072
KCAK 201151Z 03004KT 8SM MIFG FEW250 09/07 A3028 RMK AO2 SLP254 T00940067 10117 20067 51017
KCAK 201051Z 00000KT 10SM CLR 07/06 A3027 RMK AO2 SLP252 T00720056
KCAK 200951Z 29003KT 10SM CLR 09/06 A3025 RMK AO2 SLP243 T00940061
KCAK 200851Z 32007KT 10SM CLR 09/07 A3023 RMK AO2 SLP235 T00940067 51008
KCAK 200751Z 26004KT 8SM CLR 09/07 A3022 RMK AO2 SLP231 T00940072
KCAK 200651Z 28004KT 10SM CLR 12/08 A3021 RMK AO2 SLP228 T01170078
KCAK 200551Z 26003KT 10SM CLR 12/08 A3020 RMK AO2 SLP226 T01170083 10178 20111 51006
KCAK 200451Z 27003KT 10SM CLR 13/08 A3020 RMK AO2 SLP224 T01330083 402220083
KCAK 200351Z 26003KT 10SM CLR 12/08 A3019 RMK AO2 SLP223 T01220083
KCAK 200251Z 26003KT 10SM CLR 13/08 A3018 RMK AO2 SLP220 T01330083 52008
KCAK 200151Z 26004KT 10SM CLR 15/09 A3018 RMK AO2 SLP218 T01500089
KCAK 200051Z 23004KT 10SM CLR 16/09 A3017 RMK AO2 SLP215 T01610089
KCAK 192351Z 24004KT 10SM CLR 17/09 A3016 RMK AO2 SLP214 T01720089 10222 20167 53008
KCAK 192251Z 23006KT 10SM FEW250 18/09 A3015 RMK AO2 SLP208 T01780089
KCAK 192151Z 23013G18KT 10SM FEW250 21/09 A3014 RMK AO2 SLP204 T02060089
KCAK 192051Z 23012KT 10SM FEW250 22/09 A3013 RMK AO2 SLP203 T02170089 58009
KCAK 191951Z 22013KT 10SM SCT250 22/09 A3014 RMK AO2 SLP205 T02220094
KCAK 191851Z 23012G18KT 10SM SCT250 22/09 A3016 RMK AO2 SLP210 T02170089
KCAK 191751Z 22014KT 10SM FEW250 21/09 A3016 RMK AO2 SLP212 T02110094 10211 20094 58010
KCAK 191651Z 22012KT 10SM FEW250 19/09 A3018 RMK AO2 SLP219 T01940089
KCAK 191551Z 23010KT 10SM FEW250 18/08 A3019 RMK AO2 SLP223 T01830083